sensor_id;sensor_type;location;lat;lon;timestamp;pressure;altitude;pressure_sealevel;temperature;humidity
74125;BME280;62475;52.192;5.396;2023-02-28T00:00:02;103156.72;;;2.56;100.00
74125;BME280;62475;52.192;5.396;2023-02-28T00:02:35;103161.41;;;2.62;100.00
74125;BME280;62475;52.192;5.396;2023-02-28T00:05:00;103164.28;;;2.61;100.00
74125;BME280;62475;52.192;5.396;2023-02-28T00:07:26;103161.75;;;2.59;100.00
74125;BME280;62475;52.192;5.396;2023-02-28T00:09:51;103165.88;;;2.55;100.00
74125;BME280;62475;52.192;5.396;2023-02-28T00:12:16;103163.66;;;2.59;100.00
74125;BME280;62475;52.192;5.396;2023-02-28T00:14:41;103165.50;;;2.58;100.00
74125;BME280;62475;52.192;5.396;2023-02-28T00:17:07;103168.13;;;2.66;100.00
74125;BME280;62475;52.192;5.396;2023-02-28T00:19:32;103169.84;;;2.67;100.00
74125;BME280;62475;52.192;5.396;2023-02-28T00:21:57;103166.06;;;2.68;100.00
74125;BME280;62475;52.192;5.396;2023-02-28T00:24:22;103168.41;;;2.71;100.00
74125;BME280;62475;52.192;5.396;2023-02-28T00:26:47;103167.59;;;2.71;100.00
74125;BME280;62475;52.192;5.396;2023-02-28T00:29:13;103169.34;;;2.78;100.00
74125;BME280;62475;52.192;5.396;2023-02-28T00:31:38;103163.94;;;2.78;100.00
74125;BME280;62475;52.192;5.396;2023-02-28T00:34:03;103157.59;;;2.86;100.00
74125;BME280;62475;52.192;5.396;2023-02-28T00:36:28;103161.88;;;2.80;100.00
74125;BME280;62475;52.192;5.396;2023-02-28T00:38:53;103162.63;;;2.89;100.00
74125;BME280;62475;52.192;5.396;2023-02-28T00:41:19;103163.94;;;2.93;100.00
74125;BME280;62475;52.192;5.396;2023-02-28T00:43:44;103153.28;;;2.91;100.00
74125;BME280;62475;52.192;5.396;2023-02-28T00:46:09;103160.75;;;2.89;100.00
74125;BME280;62475;52.192;5.396;2023-02-28T00:48:34;103156.19;;;2.90;100.00
74125;BME280;62475;52.192;5.396;2023-02-28T00:51:00;103158.63;;;2.85;100.00
74125;BME280;62475;52.192;5.396;2023-02-28T00:53:25;103162.16;;;2.85;100.00
74125;BME280;62475;52.192;5.396;2023-02-28T00:55:50;103158.72;;;2.91;100.00
74125;BME280;62475;52.192;5.396;2023-02-28T00:58:16;103156.56;;;3.01;100.00
74125;BME280;62475;52.192;5.396;2023-02-28T01:00:41;103155.97;;;3.06;100.00
74125;BME280;62475;52.192;5.396;2023-02-28T01:03:06;103163.75;;;3.09;100.00
74125;BME280;62475;52.192;5.396;2023-02-28T01:05:31;103161.13;;;3.01;100.00
74125;BME280;62475;52.192;5.396;2023-02-28T01:07:57;103164.22;;;2.98;100.00
74125;BME280;62475;52.192;5.396;2023-02-28T01:10:22;103162.44;;;2.90;100.00
74125;BME280;62475;52.192;5.396;2023-02-28T01:12:47;103159.44;;;2.85;100.00
74125;BME280;62475;52.192;5.396;2023-02-28T01:15:12;103168.16;;;2.81;100.00
74125;BME280;62475;52.192;5.396;2023-02-28T01:17:38;103166.91;;;2.83;100.00
74125;BME280;62475;52.192;5.396;2023-02-28T01:20:03;103165.44;;;2.81;100.00
74125;BME280;62475;52.192;5.396;2023-02-28T01:22:28;103170.88;;;2.81;100.00
74125;BME280;62475;52.192;5.396;2023-02-28T01:24:54;103150.00;;;2.81;100.00
74125;BME280;62475;52.192;5.396;2023-02-28T01:27:19;103150.16;;;2.80;100.00
74125;BME280;62475;52.192;5.396;2023-02-28T01:29:44;103151.78;;;2.89;100.00
74125;BME280;62475;52.192;5.396;2023-02-28T01:32:09;103151.50;;;2.98;100.00
74125;BME280;62475;52.192;5.396;2023-02-28T01:34:35;103146.53;;;3.02;100.00
74125;BME280;62475;52.192;5.396;2023-02-28T01:37:00;103146.47;;;2.95;100.00
74125;BME280;62475;52.192;5.396;2023-02-28T01:39:26;103154.94;;;2.92;100.00
74125;BME280;62475;52.192;5.396;2023-02-28T01:41:51;103145.31;;;2.90;100.00
74125;BME280;62475;52.192;5.396;2023-02-28T01:47:00;103150.94;;;2.88;100.00
74125;BME280;62475;52.192;5.396;2023-02-28T01:49:25;103154.47;;;2.89;100.00
74125;BME280;62475;52.192;5.396;2023-02-28T01:51:51;103147.84;;;2.91;100.00
74125;BME280;62475;52.192;5.396;2023-02-28T01:54:26;103146.16;;;2.90;100.00
74125;BME280;62475;52.192;5.396;2023-02-28T01:57:02;103139.91;;;2.90;100.00
74125;BME280;62475;52.192;5.396;2023-02-28T01:59:31;103136.22;;;2.97;100.00
74125;BME280;62475;52.192;5.396;2023-02-28T02:01:58;103137.53;;;3.01;100.00
74125;BME280;62475;52.192;5.396;2023-02-28T02:04:25;103137.28;;;3.11;100.00
74125;BME280;62475;52.192;5.396;2023-02-28T02:06:52;103121.06;;;3.17;100.00
74125;BME280;62475;52.192;5.396;2023-02-28T02:09:18;103124.97;;;3.15;100.00
74125;BME280;62475;52.192;5.396;2023-02-28T02:11:43;103126.69;;;3.16;100.00
74125;BME280;62475;52.192;5.396;2023-02-28T02:14:19;103119.09;;;3.11;100.00
74125;BME280;62475;52.192;5.396;2023-02-28T02:17:10;103117.41;;;3.10;100.00
74125;BME280;62475;52.192;5.396;2023-02-28T02:22:37;103128.28;;;3.10;100.00
74125;BME280;62475;52.192;5.396;2023-02-28T02:25:15;103125.47;;;3.04;100.00
74125;BME280;62475;52.192;5.396;2023-02-28T02:28:04;103119.88;;;3.05;100.00
74125;BME280;62475;52.192;5.396;2023-02-28T02:35:29;103115.16;;;3.14;100.00
74125;BME280;62475;52.192;5.396;2023-02-28T02:38:02;103120.13;;;3.10;100.00
74125;BME280;62475;52.192;5.396;2023-02-28T02:40:35;103122.00;;;3.10;100.00
74125;BME280;62475;52.192;5.396;2023-02-28T02:45:32;103117.03;;;3.13;100.00
74125;BME280;62475;52.192;5.396;2023-02-28T02:48:01;103119.34;;;3.16;100.00
74125;BME280;62475;52.192;5.396;2023-02-28T02:50:38;103121.06;;;3.17;100.00
74125;BME280;62475;52.192;5.396;2023-02-28T02:53:04;103130.72;;;3.05;100.00
74125;BME280;62475;52.192;5.396;2023-02-28T02:55:31;103117.50;;;3.02;100.00
74125;BME280;62475;52.192;5.396;2023-02-28T02:57:59;103112.25;;;3.01;100.00
74125;BME280;62475;52.192;5.396;2023-02-28T03:00:28;103118.47;;;2.95;100.00
74125;BME280;62475;52.192;5.396;2023-02-28T03:02:55;103114.91;;;2.94;100.00
74125;BME280;62475;52.192;5.396;2023-02-28T03:05:32;103122.28;;;2.86;100.00
74125;BME280;62475;52.192;5.396;2023-02-28T03:08:02;103119.66;;;2.92;100.00
74125;BME280;62475;52.192;5.396;2023-02-28T03:10:35;103123.97;;;3.01;100.00
74125;BME280;62475;52.192;5.396;2023-02-28T03:13:50;103126.41;;;2.96;100.00
74125;BME280;62475;52.192;5.396;2023-02-28T03:15:58;103124.75;;;2.95;100.00
74125;BME280;62475;52.192;5.396;2023-02-28T03:18:32;103122.19;;;3.08;100.00
74125;BME280;62475;52.192;5.396;2023-02-28T03:23:38;103115.63;;;3.17;100.00
74125;BME280;62475;52.192;5.396;2023-02-28T03:26:09;103127.81;;;3.07;100.00
74125;BME280;62475;52.192;5.396;2023-02-28T03:31:41;103121.59;;;3.13;100.00
74125;BME280;62475;52.192;5.396;2023-02-28T03:37:08;103126.69;;;3.16;100.00
74125;BME280;62475;52.192;5.396;2023-02-28T03:39:40;103114.69;;;3.10;100.00
74125;BME280;62475;52.192;5.396;2023-02-28T03:42:09;103119.56;;;3.15;100.00
74125;BME280;62475;52.192;5.396;2023-02-28T03:44:49;103122.84;;;3.10;100.00
74125;BME280;62475;52.192;5.396;2023-02-28T03:47:16;103126.88;;;3.14;100.00
74125;BME280;62475;52.192;5.396;2023-02-28T03:52:13;103140.81;;;3.11;100.00
74125;BME280;62475;52.192;5.396;2023-02-28T03:54:41;103163.09;;;3.21;100.00
74125;BME280;62475;52.192;5.396;2023-02-28T03:57:20;103143.72;;;3.24;100.00
74125;BME280;62475;52.192;5.396;2023-02-28T03:59:48;103140.47;;;3.14;100.00
74125;BME280;62475;52.192;5.396;2023-02-28T04:02:15;103143.44;;;3.19;100.00
74125;BME280;62475;52.192;5.396;2023-02-28T04:04:41;103149.06;;;3.18;100.00
74125;BME280;62475;52.192;5.396;2023-02-28T04:07:10;103143.78;;;3.16;100.00
74125;BME280;62475;52.192;5.396;2023-02-28T04:09:36;103140.16;;;3.09;100.00
74125;BME280;62475;52.192;5.396;2023-02-28T04:12:01;103144.84;;;3.15;100.00
74125;BME280;62475;52.192;5.396;2023-02-28T04:14:26;103142.97;;;3.16;100.00
74125;BME280;62475;52.192;5.396;2023-02-28T04:16:51;103149.22;;;3.16;100.00
74125;BME280;62475;52.192;5.396;2023-02-28T04:19:17;103149.59;;;3.13;100.00
74125;BME280;62475;52.192;5.396;2023-02-28T04:21:46;103144.00;;;3.15;100.00
74125;BME280;62475;52.192;5.396;2023-02-28T04:24:16;103142.97;;;3.16;100.00
74125;BME280;62475;52.192;5.396;2023-02-28T04:26:43;103138.75;;;3.13;100.00
74125;BME280;62475;52.192;5.396;2023-02-28T04:29:09;103150.00;;;3.10;100.00
74125;BME280;62475;52.192;5.396;2023-02-28T04:31:34;103150.72;;;3.04;100.00
74125;BME280;62475;52.192;5.396;2023-02-28T04:34:00;103140.34;;;3.08;100.00
74125;BME280;62475;52.192;5.396;2023-02-28T04:36:25;103149.53;;;3.07;100.00
74125;BME280;62475;52.192;5.396;2023-02-28T04:38:51;103153.09;;;2.93;100.00
74125;BME280;62475;52.192;5.396;2023-02-28T04:41:17;103147.47;;;2.94;100.00
74125;BME280;62475;52.192;5.396;2023-02-28T04:43:43;103153.19;;;2.85;100.00
74125;BME280;62475;52.192;5.396;2023-02-28T04:46:11;103154.03;;;2.71;100.00
74125;BME280;62475;52.192;5.396;2023-02-28T04:48:37;103155.50;;;2.59;100.00
74125;BME280;62475;52.192;5.396;2023-02-28T04:51:07;103149.59;;;2.55;100.00
74125;BME280;62475;52.192;5.396;2023-02-28T04:53:33;103153.44;;;2.61;100.00
74125;BME280;62475;52.192;5.396;2023-02-28T04:55:58;103145.38;;;2.53;100.00
74125;BME280;62475;52.192;5.396;2023-02-28T04:58:25;103152.19;;;2.49;100.00
74125;BME280;62475;52.192;5.396;2023-02-28T05:00:50;103150.22;;;2.43;100.00
74125;BME280;62475;52.192;5.396;2023-02-28T05:03:16;103150.53;;;2.48;100.00
74125;BME280;62475;52.192;5.396;2023-02-28T05:05:41;103150.97;;;2.37;100.00
74125;BME280;62475;52.192;5.396;2023-02-28T05:08:06;103146.81;;;2.26;100.00
74125;BME280;62475;52.192;5.396;2023-02-28T05:10:32;103150.56;;;2.25;100.00
74125;BME280;62475;52.192;5.396;2023-02-28T05:12:57;103136.47;;;2.07;100.00
74125;BME280;62475;52.192;5.396;2023-02-28T05:15:22;103134.31;;;2.02;100.00
74125;BME280;62475;52.192;5.396;2023-02-28T05:17:47;103147.16;;;2.08;100.00
74125;BME280;62475;52.192;5.396;2023-02-28T05:20:13;103141.41;;;2.03;100.00
74125;BME280;62475;52.192;5.396;2023-02-28T05:22:39;103150.34;;;1.89;100.00
74125;BME280;62475;52.192;5.396;2023-02-28T05:25:04;103148.47;;;1.90;100.00
74125;BME280;62475;52.192;5.396;2023-02-28T05:27:30;103154.47;;;1.77;100.00
74125;BME280;62475;52.192;5.396;2023-02-28T05:29:56;103156.56;;;1.75;100.00
74125;BME280;62475;52.192;5.396;2023-02-28T05:32:22;103162.63;;;1.47;100.00
74125;BME280;62475;52.192;5.396;2023-02-28T05:34:47;103167.78;;;1.34;100.00
74125;BME280;62475;52.192;5.396;2023-02-28T05:37:13;103167.50;;;1.29;100.00
74125;BME280;62475;52.192;5.396;2023-02-28T05:39:39;103165.25;;;1.32;100.00
74125;BME280;62475;52.192;5.396;2023-02-28T05:42:04;103165.28;;;1.24;100.00
74125;BME280;62475;52.192;5.396;2023-02-28T05:44:32;103168.06;;;1.08;100.00
74125;BME280;62475;52.192;5.396;2023-02-28T05:46:57;103168.28;;;0.98;100.00
74125;BME280;62475;52.192;5.396;2023-02-28T05:49:22;103174.53;;;0.91;100.00
74125;BME280;62475;52.192;5.396;2023-02-28T05:51:48;103180.28;;;0.96;100.00
74125;BME280;62475;52.192;5.396;2023-02-28T05:54:13;103184.88;;;0.95;100.00
74125;BME280;62475;52.192;5.396;2023-02-28T05:56:38;103177.56;;;0.96;100.00
74125;BME280;62475;52.192;5.396;2023-02-28T05:59:05;103174.72;;;0.89;100.00
74125;BME280;62475;52.192;5.396;2023-02-28T06:01:32;103177.56;;;1.04;100.00
74125;BME280;62475;52.192;5.396;2023-02-28T06:03:58;103177.88;;;1.01;100.00
74125;BME280;62475;52.192;5.396;2023-02-28T06:06:23;103172.31;;;1.02;100.00
74125;BME280;62475;52.192;5.396;2023-02-28T06:08:48;103175.06;;;0.86;100.00
74125;BME280;62475;52.192;5.396;2023-02-28T06:11:13;103172.56;;;0.69;100.00
74125;BME280;62475;52.192;5.396;2023-02-28T06:13:39;103177.63;;;0.80;100.00
74125;BME280;62475;52.192;5.396;2023-02-28T06:16:04;103182.69;;;0.75;100.00
74125;BME280;62475;52.192;5.396;2023-02-28T06:18:29;103174.25;;;0.78;100.00
74125;BME280;62475;52.192;5.396;2023-02-28T06:20:55;103172.91;;;0.74;100.00
74125;BME280;62475;52.192;5.396;2023-02-28T06:23:21;103174.72;;;0.89;100.00
74125;BME280;62475;52.192;5.396;2023-02-28T06:25:46;103165.38;;;1.00;100.00
74125;BME280;62475;52.192;5.396;2023-02-28T06:28:12;103167.72;;;1.11;100.00
74125;BME280;62475;52.192;5.396;2023-02-28T06:30:40;103168.84;;;1.16;100.00
74125;BME280;62475;52.192;5.396;2023-02-28T06:33:05;103170.53;;;1.26;100.00
74125;BME280;62475;52.192;5.396;2023-02-28T06:35:30;103165.59;;;1.29;100.00
74125;BME280;62475;52.192;5.396;2023-02-28T06:37:56;103179.94;;;1.38;100.00
74125;BME280;62475;52.192;5.396;2023-02-28T06:40:21;103091.47;;;0.99;100.00
74125;BME280;62475;52.192;5.396;2023-02-28T06:42:46;103175.06;;;1.64;100.00
74125;BME280;62475;52.192;5.396;2023-02-28T06:45:11;103172.41;;;1.56;100.00
74125;BME280;62475;52.192;5.396;2023-02-28T06:47:37;103173.69;;;1.68;100.00
74125;BME280;62475;52.192;5.396;2023-02-28T06:50:03;103167.22;;;1.77;100.00
74125;BME280;62475;52.192;5.396;2023-02-28T06:52:28;103165.50;;;1.76;100.00
74125;BME280;62475;52.192;5.396;2023-02-28T06:54:54;103173.72;;;1.90;100.00
74125;BME280;62475;52.192;5.396;2023-02-28T06:57:29;103164.84;;;1.74;100.00
74125;BME280;62475;52.192;5.396;2023-02-28T06:59:56;103163.16;;;1.95;100.00
74125;BME280;62475;52.192;5.396;2023-02-28T07:02:22;103170.72;;;1.77;100.00
74125;BME280;62475;52.192;5.396;2023-02-28T07:04:47;103179.19;;;1.82;100.00
74125;BME280;62475;52.192;5.396;2023-02-28T07:07:12;103181.72;;;1.84;100.00
74125;BME280;62475;52.192;5.396;2023-02-28T07:09:37;103177.59;;;1.88;100.00
74125;BME280;62475;52.192;5.396;2023-02-28T07:12:03;103174.25;;;1.86;100.00
74125;BME280;62475;52.192;5.396;2023-02-28T07:14:31;103174.19;;;1.94;100.00
74125;BME280;62475;52.192;5.396;2023-02-28T07:16:56;103176.41;;;1.90;100.00
74125;BME280;62475;52.192;5.396;2023-02-28T07:19:21;103187.06;;;1.92;100.00
74125;BME280;62475;52.192;5.396;2023-02-28T07:21:46;103187.00;;;2.00;100.00
74125;BME280;62475;52.192;5.396;2023-02-28T07:24:11;103198.81;;;2.07;100.00
74125;BME280;62475;52.192;5.396;2023-02-28T07:26:38;103193.28;;;2.23;100.00
74125;BME280;62475;52.192;5.396;2023-02-28T07:29:03;103184.84;;;2.18;100.00
74125;BME280;62475;52.192;5.396;2023-02-28T07:31:28;103179.69;;;2.08;100.00
74125;BME280;62475;52.192;5.396;2023-02-28T07:33:54;103175.94;;;1.87;100.00
74125;BME280;62475;52.192;5.396;2023-02-28T07:36:19;103194.13;;;1.78;100.00
74125;BME280;62475;52.192;5.396;2023-02-28T07:38:45;103180.31;;;1.88;100.00
74125;BME280;62475;52.192;5.396;2023-02-28T07:41:12;103196.28;;;2.05;100.00
74125;BME280;62475;52.192;5.396;2023-02-28T07:43:38;103191.47;;;2.15;100.00
74125;BME280;62475;52.192;5.396;2023-02-28T07:46:04;103191.91;;;2.04;100.00
74125;BME280;62475;52.192;5.396;2023-02-28T07:48:29;103202.44;;;1.77;100.00
74125;BME280;62475;52.192;5.396;2023-02-28T07:50:55;103203.56;;;1.52;100.00
74125;BME280;62475;52.192;5.396;2023-02-28T07:53:20;103201.28;;;1.41;100.00
74125;BME280;62475;52.192;5.396;2023-02-28T07:55:46;103193.09;;;1.49;100.00
74125;BME280;62475;52.192;5.396;2023-02-28T07:58:11;103187.44;;;1.58;100.00
74125;BME280;62475;52.192;5.396;2023-02-28T08:00:36;103195.50;;;1.44;100.00
74125;BME280;62475;52.192;5.396;2023-02-28T08:03:01;103200.41;;;1.40;100.00
74125;BME280;62475;52.192;5.396;2023-02-28T08:05:26;103202.25;;;1.48;100.00
74125;BME280;62475;52.192;5.396;2023-02-28T08:07:52;103211.03;;;1.50;100.00
74125;BME280;62475;52.192;5.396;2023-02-28T08:10:18;103197.88;;;1.69;100.00
74125;BME280;62475;52.192;5.396;2023-02-28T08:12:43;103204.94;;;1.78;100.00
74125;BME280;62475;52.192;5.396;2023-02-28T08:15:08;103214.25;;;1.76;100.00
74125;BME280;62475;52.192;5.396;2023-02-28T08:17:34;103217.63;;;1.86;100.00
74125;BME280;62475;52.192;5.396;2023-02-28T08:19:59;103217.47;;;1.79;100.00
74125;BME280;62475;52.192;5.396;2023-02-28T08:22:24;103222.38;;;1.84;100.00
74125;BME280;62475;52.192;5.396;2023-02-28T08:24:49;103225.06;;;1.84;100.00
74125;BME280;62475;52.192;5.396;2023-02-28T08:27:15;103220.97;;;1.88;100.00
74125;BME280;62475;52.192;5.396;2023-02-28T08:29:40;103217.94;;;1.83;100.00
74125;BME280;62475;52.192;5.396;2023-02-28T08:32:06;103217.25;;;1.89;100.00
74125;BME280;62475;52.192;5.396;2023-02-28T08:34:31;103223.19;;;1.84;100.00
74125;BME280;62475;52.192;5.396;2023-02-28T08:36:57;103217.31;;;2.03;100.00
74125;BME280;62475;52.192;5.396;2023-02-28T08:39:22;103216.19;;;2.20;100.00
74125;BME280;62475;52.192;5.396;2023-02-28T08:41:47;103214.13;;;2.22;100.00
74125;BME280;62475;52.192;5.396;2023-02-28T08:44:12;103211.28;;;2.16;100.00
74125;BME280;62475;52.192;5.396;2023-02-28T08:46:38;103204.78;;;2.25;100.00
74125;BME280;62475;52.192;5.396;2023-02-28T08:49:03;103200.69;;;2.29;100.00
74125;BME280;62475;52.192;5.396;2023-02-28T08:51:28;103196.63;;;2.48;100.00
74125;BME280;62475;52.192;5.396;2023-02-28T08:53:55;103201.56;;;2.44;100.00
74125;BME280;62475;52.192;5.396;2023-02-28T08:56:21;103210.19;;;2.48;100.00
74125;BME280;62475;52.192;5.396;2023-02-28T08:58:47;103211.34;;;2.53;100.00
74125;BME280;62475;52.192;5.396;2023-02-28T09:01:13;103221.91;;;2.63;100.00
74125;BME280;62475;52.192;5.396;2023-02-28T09:03:40;103209.00;;;2.65;100.00
74125;BME280;62475;52.192;5.396;2023-02-28T09:06:06;103211.91;;;2.63;100.00
74125;BME280;62475;52.192;5.396;2023-02-28T09:08:32;103210.72;;;2.80;100.00
74125;BME280;62475;52.192;5.396;2023-02-28T09:10:57;103211.66;;;2.87;100.00
74125;BME280;62475;52.192;5.396;2023-02-28T09:13:24;103216.56;;;2.92;100.00
74125;BME280;62475;52.192;5.396;2023-02-28T09:15:50;103201.28;;;2.91;100.00
74125;BME280;62475;52.192;5.396;2023-02-28T09:18:15;103208.59;;;3.05;100.00
74125;BME280;62475;52.192;5.396;2023-02-28T09:20:41;103209.63;;;3.18;100.00
74125;BME280;62475;52.192;5.396;2023-02-28T09:23:07;103208.16;;;3.16;100.00
74125;BME280;62475;52.192;5.396;2023-02-28T09:25:32;103203.38;;;3.18;91.10
74125;BME280;62475;52.192;5.396;2023-02-28T09:27:58;103201.09;;;3.36;87.58
74125;BME280;62475;52.192;5.396;2023-02-28T09:30:26;103205.84;;;3.63;86.21
74125;BME280;62475;52.192;5.396;2023-02-28T09:32:52;103195.72;;;3.72;75.95
74125;BME280;62475;52.192;5.396;2023-02-28T09:35:23;103196.09;;;3.90;76.41
74125;BME280;62475;52.192;5.396;2023-02-28T09:37:49;103200.59;;;4.18;72.16
74125;BME280;62475;52.192;5.396;2023-02-28T09:40:14;103200.63;;;4.67;71.78
74125;BME280;62475;52.192;5.396;2023-02-28T09:42:43;103204.66;;;5.05;72.11
74125;BME280;62475;52.192;5.396;2023-02-28T09:45:18;103209.16;;;4.64;64.53
74125;BME280;62475;52.192;5.396;2023-02-28T09:47:44;103208.09;;;4.58;63.65
74125;BME280;62475;52.192;5.396;2023-02-28T09:50:17;103205.38;;;4.86;60.36
74125;BME280;62475;52.192;5.396;2023-02-28T09:52:43;103208.88;;;4.80;59.63
74125;BME280;62475;52.192;5.396;2023-02-28T09:57:41;103208.53;;;4.62;56.88
74125;BME280;62475;52.192;5.396;2023-02-28T10:00:24;103205.59;;;4.36;56.75
74125;BME280;62475;52.192;5.396;2023-02-28T10:05:24;103213.91;;;4.34;55.70
74125;BME280;62475;52.192;5.396;2023-02-28T10:10:21;103139.34;;;4.01;55.08
74125;BME280;62475;52.192;5.396;2023-02-28T10:12:47;103200.72;;;4.31;54.60
74125;BME280;62475;52.192;5.396;2023-02-28T10:15:14;103199.16;;;4.43;55.89
74125;BME280;62475;52.192;5.396;2023-02-28T10:17:40;103201.16;;;4.35;54.36
74125;BME280;62475;52.192;5.396;2023-02-28T10:20:11;103199.81;;;4.45;54.58
74125;BME280;62475;52.192;5.396;2023-02-28T10:22:50;103208.00;;;4.52;55.60
74125;BME280;62475;52.192;5.396;2023-02-28T10:25:21;103199.34;;;4.42;54.30
74125;BME280;62475;52.192;5.396;2023-02-28T10:27:47;103195.00;;;4.47;54.24
74125;BME280;62475;52.192;5.396;2023-02-28T10:30:12;103193.41;;;4.81;54.20
74125;BME280;62475;52.192;5.396;2023-02-28T10:32:43;103195.25;;;5.08;53.80
74125;BME280;62475;52.192;5.396;2023-02-28T10:35:22;103187.94;;;5.55;50.77
74125;BME280;62475;52.192;5.396;2023-02-28T10:37:49;103188.09;;;5.88;52.78
74125;BME280;62475;52.192;5.396;2023-02-28T10:42:57;103191.09;;;5.12;52.85
74125;BME280;62475;52.192;5.396;2023-02-28T10:45:24;103135.88;;;4.62;52.41
74125;BME280;62475;52.192;5.396;2023-02-28T10:47:53;103192.56;;;5.14;52.11
74125;BME280;62475;52.192;5.396;2023-02-28T10:52:52;103176.31;;;5.34;49.90
74125;BME280;62475;52.192;5.396;2023-02-28T10:57:47;103175.84;;;5.64;49.99
74125;BME280;62475;52.192;5.396;2023-02-28T11:00:22;103160.78;;;5.82;49.83
74125;BME280;62475;52.192;5.396;2023-02-28T11:02:47;103167.34;;;6.00;50.91
74125;BME280;62475;52.192;5.396;2023-02-28T11:05:26;103168.53;;;5.78;48.98
74125;BME280;62475;52.192;5.396;2023-02-28T11:07:53;103158.50;;;5.85;49.65
74125;BME280;62475;52.192;5.396;2023-02-28T11:10:19;103155.19;;;6.03;48.63
74125;BME280;62475;52.192;5.396;2023-02-28T11:12:45;103161.06;;;6.13;49.11
74125;BME280;62475;52.192;5.396;2023-02-28T11:15:30;103157.72;;;6.24;48.87
74125;BME280;62475;52.192;5.396;2023-02-28T11:17:58;103158.84;;;5.62;49.01
74125;BME280;62475;52.192;5.396;2023-02-28T11:20:26;103160.13;;;5.79;48.00
74125;BME280;62475;52.192;5.396;2023-02-28T11:22:52;103150.88;;;5.67;47.96
74125;BME280;62475;52.192;5.396;2023-02-28T11:27:52;103147.66;;;6.11;50.04
74125;BME280;62475;52.192;5.396;2023-02-28T11:30:24;103150.13;;;5.87;47.58
74125;BME280;62475;52.192;5.396;2023-02-28T11:32:50;103151.19;;;5.99;47.94
74125;BME280;62475;52.192;5.396;2023-02-28T11:35:27;103146.38;;;6.01;47.90
74125;BME280;62475;52.192;5.396;2023-02-28T11:37:53;103141.94;;;6.00;47.67
74125;BME280;62475;52.192;5.396;2023-02-28T11:40:20;103136.31;;;6.27;47.77
74125;BME280;62475;52.192;5.396;2023-02-28T11:45:20;103139.00;;;6.73;45.26
74125;BME280;62475;52.192;5.396;2023-02-28T11:50:16;103135.03;;;6.36;47.35
74125;BME280;62475;52.192;5.396;2023-02-28T11:52:55;103123.69;;;6.59;46.67
74125;BME280;62475;52.192;5.396;2023-02-28T11:55:37;103130.00;;;6.40;47.45
74125;BME280;62475;52.192;5.396;2023-02-28T12:01:11;103118.25;;;6.46;45.91
74125;BME280;62475;52.192;5.396;2023-02-28T12:03:43;103127.19;;;6.99;47.60
74125;BME280;62475;52.192;5.396;2023-02-28T12:11:12;103118.84;;;6.80;43.24
74125;BME280;62475;52.192;5.396;2023-02-28T12:18:51;103043.25;;;6.61;46.33
74125;BME280;62475;52.192;5.396;2023-02-28T12:21:29;103114.25;;;6.61;44.65
74125;BME280;62475;52.192;5.396;2023-02-28T12:26:42;103111.53;;;6.55;45.93
74125;BME280;62475;52.192;5.396;2023-02-28T12:34:27;103096.59;;;6.70;44.20
74125;BME280;62475;52.192;5.396;2023-02-28T12:36:53;103085.16;;;7.00;43.30
74125;BME280;62475;52.192;5.396;2023-02-28T12:39:23;103106.03;;;6.68;44.98
74125;BME280;62475;52.192;5.396;2023-02-28T12:41:59;103098.47;;;6.70;43.48
74125;BME280;62475;52.192;5.396;2023-02-28T12:46:53;103104.19;;;6.62;44.46
74125;BME280;62475;52.192;5.396;2023-02-28T12:49:28;103098.69;;;6.68;44.58
74125;BME280;62475;52.192;5.396;2023-02-28T12:51:56;103088.19;;;6.59;44.14
74125;BME280;62475;52.192;5.396;2023-02-28T12:55:04;103097.59;;;6.76;45.32
74125;BME280;62475;52.192;5.396;2023-02-28T12:57:26;103085.22;;;6.73;43.42
74125;BME280;62475;52.192;5.396;2023-02-28T12:59:57;103092.16;;;6.82;43.81
74125;BME280;62475;52.192;5.396;2023-02-28T13:02:44;103080.34;;;6.88;44.62
74125;BME280;62475;52.192;5.396;2023-02-28T13:10:25;103072.19;;;6.69;42.32
74125;BME280;62475;52.192;5.396;2023-02-28T13:13:02;103079.13;;;6.78;43.04
74125;BME280;62475;52.192;5.396;2023-02-28T13:15:28;103063.56;;;6.78;42.80
74125;BME280;62475;52.192;5.396;2023-02-28T13:17:57;103071.34;;;6.81;43.99
74125;BME280;62475;52.192;5.396;2023-02-28T13:20:25;103075.59;;;6.58;43.49
74125;BME280;62475;52.192;5.396;2023-02-28T13:22:51;103066.09;;;6.80;44.17
74125;BME280;62475;52.192;5.396;2023-02-28T13:27:58;103072.63;;;6.66;42.57
74125;BME280;62475;52.192;5.396;2023-02-28T13:36:09;103066.13;;;6.60;42.38
74125;BME280;62475;52.192;5.396;2023-02-28T13:38:39;103054.63;;;7.16;43.64
74125;BME280;62475;52.192;5.396;2023-02-28T13:46:34;103047.81;;;6.80;44.04
74125;BME280;62475;52.192;5.396;2023-02-28T13:51:45;103049.00;;;6.98;42.97
74125;BME280;62475;52.192;5.396;2023-02-28T13:56:43;103035.88;;;6.68;42.69
74125;BME280;62475;52.192;5.396;2023-02-28T13:59:20;103042.09;;;6.88;42.99
74125;BME280;62475;52.192;5.396;2023-02-28T14:01:57;103038.41;;;6.57;43.46
74125;BME280;62475;52.192;5.396;2023-02-28T14:07:15;103034.78;;;6.82;42.67
74125;BME280;62475;52.192;5.396;2023-02-28T14:09:45;103029.53;;;6.74;42.73
74125;BME280;62475;52.192;5.396;2023-02-28T14:14:57;103017.78;;;6.80;44.75
74125;BME280;62475;52.192;5.396;2023-02-28T14:17:22;103024.56;;;6.58;42.97
74125;BME280;62475;52.192;5.396;2023-02-28T14:19:49;103025.53;;;6.83;43.95
74125;BME280;62475;52.192;5.396;2023-02-28T14:33:20;103013.38;;;6.73;45.12
74125;BME280;62475;52.192;5.396;2023-02-28T14:38:14;103016.09;;;6.73;45.04
74125;BME280;62475;52.192;5.396;2023-02-28T14:40:41;103015.53;;;6.58;44.28
74125;BME280;62475;52.192;5.396;2023-02-28T14:43:16;103016.09;;;6.73;44.58
74125;BME280;62475;52.192;5.396;2023-02-28T14:45:44;103015.69;;;6.69;43.88
74125;BME280;62475;52.192;5.396;2023-02-28T14:48:15;103020.53;;;6.74;43.44